Time;durP1;ratioP1;P1;durP2;ratioP2;P2;SDS_P1;SDS_P2;PMS_P1;PMS_P2;Temp;Humidity;BMP_temperature;BMP_pressure;BME280_temperature;BME280_humidity;BME280_pressure;Samples;Min_cycle;Max_cycle;Signal;HPM_P1;HPM_P2
2022/01/22 00:02:17;;;;;;;6.37;4.60;;;2.60;99.90;;;2.70;70.40;99038.19;5086513;28;20050;-39
2022/01/22 00:04:45;;;;;;;6.93;4.43;;;2.60;99.90;;;2.73;70.25;99027.53;5087065;28;20040;-39
2022/01/22 00:07:13;;;;;;;11.70;6.00;;;2.70;99.90;;;2.74;69.54;99033.66;5086790;28;20078;-39
2022/01/22 00:09:59;;;;;;;7.73;5.20;;;2.70;99.90;;;2.68;70.39;99040.06;5087109;28;20066;-39
2022/01/22 00:15:10;;;;;;;8.63;5.23;;;2.60;99.90;;;2.73;70.15;99038.06;5086426;28;20082;-39
2022/01/22 00:17:38;;;;;;;10.70;5.20;;;2.70;99.90;;;2.78;69.99;99029.94;5087551;28;20264;-39
2022/01/22 00:20:09;;;;;;;8.57;5.03;;;2.70;99.90;;;2.73;70.31;99035.44;5087137;28;20050;-39
2022/01/22 00:22:37;;;;;;;7.60;4.33;;;2.70;99.90;;;2.63;70.63;99033.34;5086800;28;20044;-38
2022/01/22 00:25:10;;;;;;;9.50;4.70;;;2.60;99.90;;;2.59;70.64;99026.53;5086830;28;20048;-39
2022/01/22 00:27:42;;;;;;;8.40;4.80;;;2.50;99.90;;;2.55;71.18;99029.28;5087084;28;20052;-39
2022/01/22 00:30:17;;;;;;;9.03;4.90;;;2.50;99.90;;;2.48;71.52;99027.94;5069817;28;20427;-39
2022/01/22 00:32:46;;;;;;;10.43;5.17;;;2.50;99.90;;;2.52;71.18;99024.22;5086908;28;20051;-39
2022/01/22 00:35:16;;;;;;;9.10;6.13;;;2.50;99.90;;;2.48;71.48;99027.06;5086831;28;20062;-39
2022/01/22 00:37:48;;;;;;;15.13;5.87;;;2.50;99.90;;;2.49;71.38;99021.72;5052412;28;20056;-39
2022/01/22 00:40:17;;;;;;;16.23;5.10;;;2.50;99.90;;;2.45;71.43;99025.44;5086729;28;20118;-39
2022/01/22 00:42:47;;;;;;;10.27;5.57;;;2.50;99.90;;;2.54;71.51;99029.41;5085264;28;20036;-38
2022/01/22 00:45:17;;;;;;;9.77;5.13;;;2.50;99.90;;;2.58;71.13;99025.69;5086018;28;20062;-39
2022/01/22 00:47:48;;;;;;;7.80;4.10;;;2.50;99.90;;;2.49;71.66;99026.13;5086347;28;20048;-39
2022/01/22 00:50:21;;;;;;;7.40;5.27;;;2.50;99.90;;;2.44;71.94;99030.75;5085304;28;20729;-39
2022/01/22 00:52:50;;;;;;;7.70;5.07;;;2.50;99.90;;;2.46;71.61;99027.16;5069298;28;20050;-39
2022/01/22 00:55:19;;;;;;;12.37;5.20;;;2.50;99.90;;;2.43;72.04;99023.81;5086011;28;20223;-39
2022/01/22 00:57:47;;;;;;;12.37;6.37;;;2.50;99.90;;;2.49;71.73;99026.13;5068736;28;20040;-39
2022/01/22 01:00:17;;;;;;;12.07;5.50;;;2.50;99.90;;;2.41;71.96;99026.53;5085838;28;20258;-39
2022/01/22 01:02:46;;;;;;;9.07;5.00;;;2.50;99.90;;;2.46;71.62;99019.28;5085538;28;20048;-39
2022/01/22 01:05:15;;;;;;;10.20;6.23;;;2.50;99.90;;;2.43;71.88;99019.41;5084873;28;20400;-39
2022/01/22 01:07:43;;;;;;;9.13;5.30;;;2.50;99.90;;;2.48;71.94;99027.94;5068862;28;20472;-39
2022/01/22 01:10:16;;;;;;;13.43;6.17;;;2.50;99.90;;;2.50;71.88;99027.81;5067489;28;20052;-39
2022/01/22 01:12:45;;;;;;;7.07;4.77;;;2.50;99.90;;;2.51;72.01;99032.16;5067467;28;20074;-39
2022/01/22 01:34:33;;;;;;;11.80;5.43;;;2.40;99.90;;;2.22;72.77;99041.50;5105102;28;20072;-38
2022/01/22 01:37:01;;;;;;;9.53;5.30;;;2.30;99.90;;;2.29;72.68;99029.75;5087639;28;20066;-38
2022/01/22 01:39:32;;;;;;;9.60;5.60;;;2.40;99.90;;;2.25;73.04;99029.06;5106347;28;20054;-38
2022/01/22 01:42:06;;;;;;;11.03;6.27;;;2.40;99.90;;;2.39;72.51;99041.53;5087253;28;20055;-38
2022/01/22 01:44:35;;;;;;;9.80;5.57;;;2.50;99.90;;;2.32;72.62;99042.75;5088467;28;20047;-38
2022/01/22 01:47:13;;;;;;;8.60;5.57;;;2.40;99.90;;;2.40;72.73;99048.47;5107320;28;20047;-38
2022/01/22 01:49:41;;;;;;;8.30;5.57;;;2.50;99.90;;;2.35;72.78;99046.06;5088197;28;20055;-38
2022/01/22 01:52:33;;;;;;;12.40;6.17;;;2.40;99.90;;;2.37;72.54;99051.25;5104428;28;20370;-38
2022/01/22 01:55:11;;;;;;;12.70;6.67;;;2.50;99.90;;;2.47;72.34;99055.13;5102815;28;20043;-38
2022/01/22 01:57:42;;;;;;;10.37;5.27;;;2.50;99.90;;;2.48;72.16;99056.84;5106304;28;20054;-38
2022/01/22 02:00:23;;;;;;;9.57;5.17;;;2.50;99.90;;;2.33;73.08;99070.75;5088665;28;20051;-38
2022/01/22 02:02:58;;;;;;;10.43;6.10;;;2.50;99.90;;;2.25;73.12;99080.75;5089196;28;20346;-38
2022/01/22 02:05:31;;;;;;;10.43;6.20;;;2.30;99.90;;;2.34;72.71;99075.06;5090862;28;20047;-39
2022/01/22 02:08:00;;;;;;;10.13;6.37;;;2.40;99.90;;;2.44;72.43;99071.03;5109524;28;20067;-39
2022/01/22 02:10:54;;;;;;;;;;;2.40;99.90;;;2.38;73.04;99073.97;5092208;28;20071;-39
2022/01/22 02:25:22;;;;;;;12.40;7.93;;;2.60;99.90;;;2.70;71.88;99048.72;5108511;28;20039;-38
2022/01/22 02:27:51;;;;;;;13.07;7.97;;;2.70;99.90;;;2.75;71.85;99046.72;5089191;28;20242;-37
2022/01/22 02:30:28;;;;;;;14.13;7.60;;;2.70;99.90;;;2.85;71.55;99051.50;5086787;28;20286;-37
2022/01/22 02:35:57;;;;;;;15.30;8.37;;;2.80;99.90;;;2.66;72.32;99049.81;5087348;28;20052;-37
2022/01/22 02:38:40;;;;;;;19.63;8.27;;;2.70;99.90;;;2.61;71.99;99043.06;5104867;28;20070;-38
2022/01/22 02:41:13;;;;;;;22.87;9.00;;;2.60;99.90;;;2.66;71.83;99044.56;5089485;28;20370;-38
2022/01/22 02:43:41;;;;;;;15.82;8.15;;;2.60;99.90;;;2.75;71.87;99040.59;5103099;28;20064;-38
2022/01/22 02:46:13;;;;;;;13.70;7.57;;;2.70;99.90;;;2.78;71.63;99047.50;5087902;28;20242;-38
2022/01/22 02:48:42;;;;;;;16.03;9.73;;;2.70;99.90;;;2.84;71.73;99042.75;5088243;28;20048;-38
2022/01/22 02:51:09;;;;;;;17.47;9.53;;;2.80;99.90;;;2.82;72.02;99044.63;5087953;28;20054;-38
2022/01/22 02:53:37;;;;;;;20.97;8.23;;;2.70;99.90;;;2.80;71.65;99037.75;5087527;28;20048;-38
2022/01/22 02:56:06;;;;;;;17.53;8.43;;;2.80;99.90;;;2.86;71.51;99043.53;5089570;28;20052;-38
2022/01/22 02:58:34;;;;;;;13.43;8.33;;;2.80;99.90;;;2.75;71.93;99035.31;5089650;28;20220;-38
2022/01/22 03:01:03;;;;;;;14.47;7.97;;;2.70;99.90;;;2.70;71.75;99040.00;5087740;28;20376;-38
2022/01/22 03:03:31;;;;;;;15.20;8.13;;;2.70;99.90;;;2.78;71.41;99034.34;5086117;28;20367;-38
2022/01/22 03:06:01;;;;;;;12.87;8.60;;;2.70;99.90;;;2.85;71.57;99020.81;5071437;28;20052;-38
2022/01/22 03:08:30;;;;;;;15.83;8.47;;;2.80;99.90;;;2.84;71.34;99028.75;5087101;28;20251;-38
2022/01/22 03:11:00;;;;;;;15.33;9.77;;;2.80;99.90;;;2.90;71.29;99031.06;5069744;28;20048;-38
2022/01/22 03:19:03;;;;;;;15.80;7.73;;;2.80;99.90;;;2.83;71.36;99040.19;5088427;28;20052;-38
2022/01/22 03:21:39;;;;;;;13.90;8.37;;;2.70;99.90;;;2.93;71.37;99034.41;5087278;28;20274;-38
2022/01/22 03:29:43;;;;;;;17.03;10.30;;;2.90;99.90;;;3.08;70.81;99043.28;5089535;28;20055;-39
2022/01/22 03:32:12;;;;;;;19.93;9.27;;;3.00;99.90;;;3.18;70.94;99046.28;5106322;28;20081;-39
2022/01/22 03:34:48;;;;;;;16.57;8.73;;;3.10;99.90;;;3.09;70.71;99041.50;5091293;28;20073;-39
2022/01/22 03:37:16;;;;;;;14.40;8.23;;;3.00;99.90;;;3.03;70.83;99039.19;5107885;28;20061;-39
2022/01/22 03:39:44;;;;;;;12.47;8.40;;;2.90;99.90;;;2.81;71.50;99032.41;5090380;28;20054;-39
2022/01/22 03:42:13;;;;;;;14.10;8.73;;;2.70;99.90;;;2.74;71.41;99031.84;5106862;28;20276;-39
2022/01/22 03:44:41;;;;;;;21.03;10.20;;;2.70;99.90;;;2.82;71.34;99017.47;5105492;28;20054;-39
2022/01/22 03:47:09;;;;;;;17.83;9.37;;;2.80;99.90;;;2.76;71.54;99023.91;5088735;28;20055;-39
2022/01/22 03:49:37;;;;;;;18.67;10.20;;;2.70;99.90;;;2.82;71.33;99020.09;5090572;28;20057;-39
2022/01/22 03:52:09;;;;;;;18.03;8.77;;;2.80;99.90;;;2.71;71.80;99018.00;5087798;28;20066;-39
2022/01/22 03:54:37;;;;;;;15.37;9.07;;;2.70;99.90;;;2.71;71.66;99007.50;5089416;28;20059;-39
2022/01/22 03:57:07;;;;;;;14.47;9.27;;;2.60;99.90;;;2.74;71.68;99012.59;5107239;28;20055;-39
2022/01/22 03:59:45;;;;;;;17.60;9.73;;;2.70;99.90;;;2.81;71.38;99018.38;5089352;28;20058;-39
2022/01/22 04:05:02;;;;;;;15.43;8.40;;;2.70;99.90;;;2.76;71.57;99005.47;5108512;28;20050;-38
2022/01/22 04:10:21;;;;;;;16.33;7.87;;;2.60;99.90;;;2.63;71.92;99002.63;5089553;28;20424;-38
2022/01/22 04:12:59;;;;;;;15.03;8.47;;;2.60;99.90;;;2.68;71.82;98998.00;5088454;28;20068;-38
2022/01/22 04:15:30;;;;;;;16.63;9.17;;;2.60;99.90;;;2.68;71.96;98995.34;5108059;28;20043;-38
2022/01/22 04:28:45;;;;;;;21.27;8.37;;;2.60;99.90;;;2.81;71.60;99002.59;5087456;28;20342;-38
2022/01/22 04:31:13;;;;;;;13.63;8.93;;;2.70;99.90;;;2.87;71.95;99018.06;5086351;28;20309;-38
2022/01/22 04:33:41;;;;;;;12.63;7.83;;;2.80;99.90;;;2.83;71.93;99006.88;5069016;28;20051;-38
2022/01/22 04:36:11;;;;;;;13.13;8.53;;;2.80;99.90;;;2.78;71.52;99013.31;5086694;28;20058;-38
2022/01/22 04:38:40;;;;;;;16.37;8.47;;;2.70;99.90;;;2.66;71.80;99001.63;5085709;28;20059;-38
2022/01/22 04:41:08;;;;;;;17.20;8.40;;;2.60;99.90;;;2.64;71.94;99011.38;5085243;28;20040;-38
2022/01/22 04:43:38;;;;;;;16.87;8.50;;;2.60;99.90;;;2.64;72.03;98998.22;5086512;28;20054;-38
2022/01/22 04:57:04;;;;;;;13.10;8.50;;;2.30;99.90;;;2.29;73.07;99012.22;5067063;28;20050;-38
2022/01/22 04:59:32;;;;;;;12.50;7.67;;;2.40;99.90;;;2.14;73.86;99011.19;5085658;28;20043;-37
2022/01/22 05:02:02;;;;;;;16.93;9.73;;;2.30;99.90;;;2.27;73.45;99011.44;5069418;28;20058;-38
2022/01/22 05:04:59;;;;;;;15.50;8.73;;;2.30;99.90;;;2.38;73.19;99000.38;5083856;28;20056;-37
2022/01/22 05:07:50;;;;;;;12.38;7.75;;;2.40;99.90;;;2.34;73.11;99006.72;5078900;28;20104;-37
2022/01/22 05:10:38;;;;;;;16.67;8.70;;;2.40;99.90;;;2.37;73.12;99011.84;5085358;28;20056;-38
2022/01/22 05:13:07;;;;;;;11.53;9.20;;;2.40;99.90;;;2.32;73.52;99030.44;5068192;28;20051;-38
2022/01/22 05:15:35;;;;;;;18.07;9.53;;;2.40;99.90;;;2.27;73.60;99024.59;5067232;28;20062;-38
2022/01/22 05:18:06;;;;;;;14.93;9.00;;;2.40;99.90;;;2.33;73.41;99026.06;5069197;28;20066;-38
2022/01/22 05:20:44;;;;;;;16.50;9.17;;;2.30;99.90;;;2.38;73.14;99026.66;5068857;28;20052;-38
2022/01/22 05:23:16;;;;;;;16.97;9.63;;;2.40;99.90;;;2.50;73.12;99028.69;5086217;28;20059;-38
2022/01/22 05:25:57;;;;;;;17.80;9.43;;;2.50;99.90;;;2.58;72.81;99043.22;5085459;28;20055;-38
2022/01/22 05:29:00;;;;;;;19.03;9.23;;;2.50;99.90;;;2.63;72.56;99049.94;5068294;28;20052;-38
2022/01/22 05:31:53;;;;;;;14.77;8.57;;;2.60;99.90;;;2.52;72.76;99042.63;5085538;28;20056;-38
2022/01/22 05:37:52;;;;;;;17.70;9.20;;;2.50;99.90;;;2.63;72.60;99041.22;5084576;28;20067;-38
2022/01/22 05:40:20;;;;;;;17.07;10.07;;;2.50;99.90;;;2.61;72.80;99045.72;5072948;28;20040;-38
2022/01/22 05:42:48;;;;;;;15.03;8.53;;;2.60;99.90;;;2.59;72.66;99053.66;5071327;28;20454;-38
2022/01/22 05:45:16;;;;;;;16.07;9.27;;;2.50;99.90;;;2.49;73.03;99048.00;5072793;28;20539;-38
2022/01/22 05:47:45;;;;;;;14.33;8.43;;;2.50;99.90;;;2.54;72.97;99047.81;5089262;28;20048;-38
2022/01/22 05:50:29;;;;;;;15.20;8.60;;;2.50;99.90;;;2.34;73.04;99046.13;5090064;28;20117;-38
2022/01/22 05:53:14;;;;;;;19.27;9.55;;;2.40;99.90;;;2.38;73.09;99045.06;5072348;28;20052;-39
2022/01/22 06:01:38;;;;;;;17.60;8.63;;;2.50;99.90;;;2.40;73.01;99040.56;5069798;28;20056;-39
2022/01/22 06:04:14;;;;;;;13.00;7.37;;;2.40;99.90;;;2.26;73.40;99049.13;5088288;28;20056;-39
2022/01/22 06:06:42;;;;;;;14.70;9.70;;;2.40;99.90;;;2.38;73.32;99049.47;5072685;28;20060;-39
2022/01/22 06:09:11;;;;;;;12.53;8.20;;;2.50;99.90;;;2.40;73.47;99053.72;5072175;28;20079;-39
2022/01/22 06:11:53;;;;;;;12.43;6.23;;;2.40;99.90;;;2.41;73.16;99055.44;5089748;28;20050;-40
2022/01/22 06:14:25;;;;;;;15.47;8.40;;;2.50;99.90;;;2.40;73.06;99058.97;5070514;28;20411;-39
2022/01/22 06:16:53;;;;;;;18.13;8.77;;;2.40;99.90;;;2.55;72.71;99054.75;5073030;28;20365;-40
2022/01/22 06:19:43;;;;;;;14.83;8.90;;;2.50;99.90;;;2.51;72.78;99054.03;5089718;28;20335;-39
2022/01/22 06:22:12;;;;;;;13.63;7.80;;;2.50;99.90;;;2.49;72.72;99053.28;5088280;28;20054;-39
2022/01/22 06:24:40;;;;;;;14.77;8.23;;;2.50;99.90;;;2.54;72.81;99058.31;5089093;28;20040;-38
2022/01/22 06:27:10;;;;;;;17.23;7.67;;;2.50;99.90;;;2.60;72.70;99062.41;5083334;28;20353;-38
2022/01/22 06:29:38;;;;;;;15.50;9.03;;;2.60;99.90;;;2.60;72.66;99070.28;5091366;28;20129;-39
2022/01/22 06:32:08;;;;;;;15.33;8.87;;;2.60;99.90;;;2.50;72.84;99072.50;5090332;28;20070;-38
2022/01/22 06:34:38;;;;;;;15.33;7.73;;;2.50;99.90;;;2.54;72.69;99074.94;5090380;28;20051;-39
2022/01/22 06:37:06;;;;;;;12.30;7.87;;;2.50;99.90;;;2.64;72.54;99080.59;5091562;28;20059;-38
2022/01/22 06:42:49;;;;;;;14.77;8.20;;;2.70;99.90;;;2.72;72.12;99081.06;5112071;28;20046;-39
2022/01/22 06:45:32;;;;;;;13.90;8.03;;;2.70;99.90;;;2.74;71.90;99078.34;5091097;28;20055;-39
2022/01/22 06:48:05;;;;;;;15.93;8.37;;;2.70;99.90;;;2.69;72.31;99078.56;5076102;28;20054;-39
2022/01/22 06:50:45;;;;;;;12.17;7.73;;;2.70;99.90;;;2.74;72.42;99089.72;5089476;28;20108;-39
2022/01/22 06:53:13;;;;;;;14.13;8.83;;;2.70;99.90;;;2.73;72.23;99085.41;5091339;28;20590;-39
2022/01/22 06:55:52;;;;;;;13.30;7.93;;;2.70;99.90;;;2.75;71.79;99082.66;5089484;28;20346;-39
2022/01/22 06:58:23;;;;;;;15.33;8.67;;;2.70;99.90;;;2.81;71.95;99081.50;5108821;28;20059;-40
2022/01/22 07:01:02;;;;;;;17.97;9.33;;;2.80;99.90;;;2.83;71.85;99084.91;5089790;28;20051;-38
2022/01/22 07:03:56;;;;;;;11.30;7.47;;;2.80;99.90;;;2.85;71.72;99078.66;5105115;28;20059;-37
2022/01/22 07:06:35;;;;;;;14.50;7.93;;;2.80;99.90;;;2.90;71.82;99076.63;5090662;28;20055;-38
2022/01/22 07:09:03;;;;;;;14.70;9.17;;;2.90;99.90;;;2.95;71.36;99084.31;5090397;28;20051;-39
2022/01/22 07:11:34;;;;;;;11.87;7.53;;;2.90;99.90;;;3.00;71.37;99092.81;5089293;28;20707;-39
2022/01/22 07:14:03;;;;;;;14.63;8.73;;;3.00;99.90;;;2.94;70.93;99078.19;5090400;28;20061;-39
2022/01/22 07:16:31;;;;;;;16.00;8.90;;;2.90;99.90;;;3.01;71.60;99084.00;5090152;28;20257;-38
2022/01/22 07:19:25;;;;;;;15.15;8.30;;;3.00;99.90;;;2.89;71.02;99087.22;5106913;28;20055;-38
2022/01/22 07:22:09;;;;;;;13.57;7.93;;;2.90;99.90;;;2.87;70.74;99096.97;5089880;28;20040;-38
2022/01/22 07:24:53;;;;;;;13.97;7.63;;;2.80;99.90;;;2.91;71.52;99090.66;5088872;28;20066;-38
2022/01/22 07:27:21;;;;;;;14.20;7.57;;;2.90;99.90;;;2.87;70.98;99089.09;5090051;28;20054;-38
2022/01/22 07:29:49;;;;;;;16.43;8.10;;;2.90;99.90;;;2.94;71.49;99090.50;5109122;28;20045;-38
2022/01/22 07:32:27;;;;;;;14.13;8.23;;;2.80;99.90;;;2.95;71.29;99087.78;5091183;28;20058;-38
2022/01/22 07:34:55;;;;;;;18.70;8.67;;;2.90;99.90;;;3.00;71.42;99102.47;5089242;28;20043;-38
2022/01/22 07:37:24;;;;;;;21.77;9.23;;;2.90;99.90;;;2.93;70.87;99100.16;5073383;28;20051;-38
2022/01/22 07:39:54;;;;;;;12.77;7.87;;;2.90;99.90;;;2.88;70.68;99091.66;5086810;28;20056;-39
2022/01/22 07:42:41;;;;;;;16.37;9.50;;;2.90;99.90;;;2.93;71.09;99094.91;5088880;28;20362;-38
2022/01/22 07:45:28;;;;;;;16.00;7.53;;;2.90;99.90;;;2.90;70.98;99107.38;5109512;28;20360;-38
2022/01/22 07:48:06;;;;;;;13.87;7.23;;;2.90;99.90;;;2.87;71.15;99110.13;5090362;28;20129;-38
2022/01/22 07:50:59;;;;;;;16.23;8.17;;;2.90;99.90;;;2.81;71.20;99103.44;5105253;28;20055;-38
2022/01/22 07:53:27;;;;;;;14.70;7.83;;;2.80;99.90;;;2.77;71.24;99101.84;5110752;28;20044;-38
2022/01/22 07:55:56;;;;;;;16.60;8.47;;;2.80;99.90;;;2.74;71.68;99094.97;5101664;28;20047;-39
2022/01/22 07:58:24;;;;;;;15.00;8.10;;;2.80;99.90;;;2.72;71.82;99107.34;5100256;28;20043;-38
2022/01/22 08:00:52;;;;;;;13.50;8.23;;;2.80;99.90;;;2.63;71.76;99102.53;5099940;28;20043;-38
2022/01/22 08:03:20;;;;;;;16.10;7.63;;;2.70;99.90;;;2.60;72.21;99092.19;5101872;28;20359;-38
2022/01/22 08:06:06;;;;;;;16.47;8.53;;;2.70;99.90;;;2.65;71.60;99095.44;5123044;28;20050;-38
2022/01/22 08:09:05;;;;;;;13.93;7.67;;;2.70;99.90;;;2.68;72.47;99095.28;5118535;28;20051;-38
2022/01/22 08:11:51;;;;;;;18.97;8.73;;;2.70;99.90;;;2.59;71.63;99087.00;5124718;28;20069;-38
2022/01/22 08:14:19;;;;;;;15.37;9.50;;;2.70;99.90;;;2.61;71.83;99087.78;5100566;28;20047;-38
2022/01/22 08:16:49;;;;;;;18.90;9.57;;;2.70;99.90;;;2.70;71.91;99089.97;5099838;28;20058;-39
2022/01/22 08:19:19;;;;;;;16.60;8.53;;;2.80;99.90;;;2.65;72.12;99082.28;5101594;28;20054;-39
2022/01/22 08:21:47;;;;;;;13.27;7.67;;;2.70;99.90;;;2.59;72.54;99095.72;5101301;28;20353;-39
2022/01/22 08:24:34;;;;;;;12.90;7.73;;;2.70;99.90;;;2.78;72.27;99092.22;5124109;27;20376;-39
2022/01/22 08:27:20;;;;;;;14.63;8.07;;;2.80;99.90;;;2.81;72.07;99098.16;5118169;28;20353;-39
2022/01/22 08:29:48;;;;;;;16.53;7.80;;;2.90;99.90;;;2.69;72.13;99106.66;5100367;28;20051;-39
2022/01/22 08:37:31;;;;;;;17.07;9.30;;;2.80;99.90;;;2.64;72.05;99121.81;5101379;28;20051;-38
2022/01/22 08:40:00;;;;;;;13.53;8.50;;;2.70;99.90;;;2.66;72.36;99122.59;5117002;28;20333;-41
2022/01/22 08:42:29;;;;;;;19.83;10.00;;;2.80;99.90;;;2.70;72.43;99124.16;5098772;28;20368;-38
2022/01/22 08:44:57;;;;;;;18.40;10.87;;;2.80;99.90;;;2.78;72.11;99136.91;5101293;28;20043;-38
2022/01/22 08:47:25;;;;;;;15.40;9.57;;;2.90;99.90;;;2.69;72.72;99146.94;5100687;28;20047;-39
2022/01/22 08:49:53;;;;;;;18.80;9.27;;;2.80;99.90;;;2.76;72.24;99139.63;5080556;28;20047;-39
2022/01/22 08:52:26;;;;;;;17.20;10.67;;;2.80;99.90;;;2.71;72.14;99141.59;5116777;28;20051;-39
2022/01/22 08:54:54;;;;;;;14.50;9.63;;;2.80;99.90;;;2.69;72.22;99140.84;5108136;28;20051;-39
2022/01/22 08:57:26;;;;;;;23.47;9.77;;;2.80;99.90;;;2.58;72.67;99159.78;5100336;28;20051;-39
2022/01/22 09:00:00;;;;;;;18.13;9.97;;;2.70;99.90;;;2.58;72.79;99154.53;5096166;28;20066;-39
2022/01/22 09:02:28;;;;;;;22.43;9.67;;;2.70;99.90;;;2.64;72.55;99132.34;5102626;28;20057;-39
2022/01/22 09:05:36;;;;;;;15.37;8.23;;;2.70;99.90;;;2.64;72.47;99114.78;5056799;28;20407;-39
2022/01/22 09:08:27;;;;;;;16.77;9.67;;;2.70;99.90;;;2.80;72.48;99114.03;5019156;28;20045;-39
2022/01/22 09:11:09;;;;;;;18.00;9.17;;;2.90;99.90;;;2.88;72.58;99123.22;5103044;28;20059;-38
2022/01/22 09:13:55;;;;;;;14.77;8.87;;;3.00;99.90;;;2.93;71.86;99136.16;5122835;27;20058;-39
2022/01/22 09:16:26;;;;;;;18.57;8.73;;;3.00;99.90;;;2.89;72.35;99139.84;5099479;28;20053;-39
2022/01/22 09:19:01;;;;;;;20.07;9.33;;;3.00;99.90;;;2.76;72.25;99142.25;5099930;28;20047;-39
2022/01/22 09:21:29;;;;;;;13.27;8.33;;;2.90;99.90;;;2.86;72.30;99145.28;5098207;28;20042;-39
2022/01/22 09:23:57;;;;;;;13.37;7.87;;;3.00;99.90;;;2.94;72.45;99143.94;5100583;28;20051;-39
2022/01/22 09:26:25;;;;;;;12.80;7.97;;;3.00;99.90;;;2.87;72.35;99145.22;5116169;28;20051;-39
2022/01/22 09:28:55;;;;;;;10.90;8.03;;;3.00;99.90;;;2.83;72.23;99155.94;5115817;28;20166;-39
2022/01/22 09:31:25;;;;;;;16.37;8.00;;;2.90;99.90;;;2.85;72.78;99159.34;5117588;28;20053;-38
2022/01/22 09:33:56;;;;;;;18.03;9.00;;;2.90;99.90;;;2.82;72.77;99152.47;5100874;28;20044;-39
2022/01/22 09:36:43;;;;;;;13.53;7.57;;;2.90;99.90;;;2.82;73.39;99152.47;5123564;28;20054;-39
2022/01/22 09:39:21;;;;;;;15.17;7.83;;;2.90;99.90;;;2.86;72.99;99147.91;5100698;28;20059;-39
2022/01/22 09:42:04;;;;;;;12.53;6.83;;;3.00;99.90;;;2.74;73.32;99160.72;5100217;28;20052;-39
2022/01/22 09:44:41;;;;;;;13.68;7.47;;;2.90;99.90;;;2.86;73.25;99163.69;5118855;28;20042;-39
2022/01/22 09:47:27;;;;;;;14.60;8.20;;;2.90;99.90;;;2.91;72.71;99169.59;5099213;28;20066;-39
2022/01/22 09:50:30;;;;;;;15.00;7.57;;;3.00;99.90;;;2.95;72.69;99168.50;5103334;28;20055;-39
2022/01/22 09:53:13;;;;;;;13.80;7.83;;;3.00;99.90;;;2.98;73.12;99173.59;5123284;28;20043;-38
2022/01/22 09:56:20;;;;;;;13.87;7.40;;;3.00;99.90;;;3.05;72.72;99187.31;5113846;28;20051;-39
2022/01/22 09:59:14;;;;;;;14.93;8.60;;;3.10;99.90;;;3.00;73.03;99187.53;5115046;28;20250;-39
2022/01/22 10:02:17;;;;;;;11.70;7.67;;;3.10;99.90;;;3.04;72.34;99182.97;5108549;28;20067;-39
2022/01/22 10:04:49;;;;;;;16.80;9.43;;;3.10;99.90;;;3.04;72.58;99186.44;5100899;28;20231;-39
2022/01/22 10:07:54;;;;;;;14.17;8.30;;;3.10;99.90;;;3.01;72.94;99193.66;5080245;28;20357;-39
2022/01/22 10:10:42;;;;;;;13.00;8.50;;;3.10;99.90;;;3.12;73.08;99188.69;5118103;28;20044;-39
2022/01/22 10:13:50;;;;;;;11.90;7.53;;;3.10;99.90;;;3.13;72.76;99187.78;5093741;28;20051;-38
2022/01/22 10:16:30;;;;;;;13.07;7.97;;;3.20;99.90;;;3.21;72.36;99185.59;5117703;28;20051;-39
2022/01/22 10:19:23;;;;;;;12.93;6.77;;;3.20;99.90;;;3.08;72.37;99185.38;5117985;28;20045;-38
2022/01/22 10:22:16;;;;;;;13.53;8.10;;;3.20;99.90;;;3.20;72.40;99180.41;5117221;28;20051;-38
2022/01/22 10:24:46;;;;;;;14.73;9.00;;;3.20;99.90;;;3.25;73.00;99200.31;5119466;28;20368;-38
2022/01/22 10:27:36;;;;;;;16.47;8.10;;;3.20;99.90;;;3.30;72.23;99185.16;5121936;28;20227;-37
2022/01/22 10:30:13;;;;;;;11.93;7.67;;;3.30;99.90;;;3.29;72.67;99187.84;5121903;28;20051;-37
2022/01/22 10:33:10;;;;;;;12.80;7.00;;;3.30;99.90;;;3.38;72.01;99182.13;5119200;28;20342;-37
2022/01/22 10:36:20;;;;;;;13.25;7.22;;;3.40;99.90;;;3.32;72.27;99180.66;5123005;28;20042;-37
2022/01/22 10:39:25;;;;;;;14.17;8.23;;;3.30;99.90;;;3.31;72.37;99193.88;5125835;28;20046;-37
2022/01/22 10:41:53;;;;;;;10.37;6.87;;;3.30;99.90;;;3.25;72.49;99178.41;5115959;28;20068;-37
2022/01/22 10:44:45;;;;;;;11.17;7.13;;;3.30;99.90;;;3.35;72.15;99161.22;5120145;28;20081;-37
2022/01/22 10:47:22;;;;;;;11.70;6.97;;;3.40;99.90;;;3.39;72.02;99173.28;5121482;28;20049;-37
2022/01/22 10:49:50;;;;;;;11.87;7.13;;;3.40;99.90;;;3.42;72.22;99167.88;5121556;28;20918;-37
2022/01/22 10:52:18;;;;;;;11.40;6.97;;;3.40;99.90;;;3.33;72.06;99161.31;5104071;28;20047;-37
2022/01/22 10:54:47;;;;;;;13.00;6.97;;;3.40;99.90;;;3.34;72.36;99162.16;5120836;28;20050;-36
2022/01/22 10:57:25;;;;;;;14.73;8.00;;;3.40;99.90;;;3.37;72.14;99156.72;5119055;28;20058;-38
2022/01/22 10:59:55;;;;;;;12.87;7.47;;;3.40;99.90;;;3.42;72.23;99148.59;5121313;28;20341;-38
2022/01/22 11:02:37;;;;;;;9.83;7.13;;;3.40;99.90;;;3.35;72.32;99148.91;5121385;28;20048;-38
2022/01/22 11:05:07;;;;;;;10.97;7.77;;;3.40;99.90;;;3.41;72.10;99157.41;5119694;28;20250;-38
2022/01/22 11:07:35;;;;;;;14.83;8.67;;;3.40;99.90;;;3.43;72.04;99148.53;5101833;28;20043;-38
2022/01/22 11:10:07;;;;;;;13.43;8.20;;;3.50;99.90;;;3.45;72.01;99146.66;5120923;28;20254;-38
2022/01/22 11:12:35;;;;;;;17.10;7.43;;;3.50;99.90;;;3.53;72.61;99151.53;5120952;28;20040;-38
2022/01/22 11:15:03;;;;;;;11.77;7.97;;;3.50;99.90;;;3.53;71.66;99159.44;5116081;28;20066;-40
2022/01/22 11:17:32;;;;;;;12.67;7.37;;;3.60;99.90;;;3.56;71.97;99148.72;5107116;28;20052;-40
2022/01/22 11:20:01;;;;;;;12.20;7.00;;;3.60;99.90;;;3.56;71.61;99164.53;5100482;28;20421;-40
2022/01/22 11:22:31;;;;;;;12.13;8.13;;;3.60;99.90;;;3.60;72.16;99159.94;5112238;28;20242;-40
2022/01/22 11:24:59;;;;;;;10.23;6.60;;;3.60;99.90;;;3.49;72.03;99157.84;5110770;28;20051;-40
2022/01/22 11:27:29;;;;;;;15.07;8.00;;;3.50;99.90;;;3.52;72.58;99163.81;5109442;27;20043;-40
2022/01/22 11:30:11;;;;;;;13.60;7.20;;;3.50;99.90;;;3.50;72.18;99162.22;5093432;28;20058;-40
2022/01/22 11:33:03;;;;;;;11.00;7.07;;;3.50;99.90;;;3.48;71.75;99167.56;5109335;28;20051;-40
2022/01/22 11:35:46;;;;;;;11.47;6.63;;;3.50;99.90;;;3.54;72.25;99169.00;5109321;28;20043;-40
2022/01/22 11:38:33;;;;;;;12.80;7.77;;;3.60;99.90;;;3.51;72.28;99170.03;5109152;28;20356;-40
2022/01/22 11:41:08;;;;;;;9.73;6.23;;;3.60;99.90;;;3.60;72.06;99158.16;5107674;28;20047;-40
2022/01/22 11:44:17;;;;;;;11.53;6.67;;;3.60;99.90;;;3.67;71.31;99163.97;5108229;28;20047;-40
2022/01/22 11:46:59;;;;;;;11.67;7.53;;;3.70;99.90;;;3.63;72.15;99160.66;5108758;28;20035;-40
2022/01/22 11:49:31;;;;;;;8.93;6.03;;;3.60;99.90;;;3.37;72.61;99166.41;5092125;28;20054;-40
2022/01/22 11:52:08;;;;;;;14.73;7.80;;;3.50;99.90;;;3.49;72.15;99152.59;5107562;28;20051;-40
2022/01/22 11:55:01;;;;;;;13.83;9.30;;;3.50;99.90;;;3.46;72.27;99150.13;5107884;28;20069;-40
2022/01/22 11:57:32;;;;;;;15.10;8.00;;;3.60;99.90;;;3.55;72.13;99154.94;5107183;28;20380;-40
2022/01/22 12:00:23;;;;;;;15.30;7.63;;;3.60;99.90;;;3.66;72.30;99147.28;5106865;28;20048;-41
2022/01/22 12:03:03;;;;;;;10.03;6.60;;;3.70;99.90;;;3.77;72.23;99141.47;5107352;28;20048;-40
2022/01/22 12:05:54;;;;;;;14.83;8.10;;;3.90;99.90;;;3.67;72.20;99143.75;5108002;28;20047;-39
2022/01/22 12:08:23;;;;;;;16.15;8.05;;;3.80;99.90;;;3.66;71.56;99142.03;5108352;28;20047;-38
2022/01/22 12:16:39;;;;;;;;;;;3.80;99.90;;;3.54;71.92;99143.53;5103598;28;20074;-38
2022/01/22 12:19:42;;;;;;;10.73;6.87;;;3.70;99.90;;;3.65;71.83;99145.59;5107061;28;19915;-38
2022/01/22 12:22:35;;;;;;;12.27;7.70;;;3.70;99.90;;;3.62;72.21;99147.56;5107158;28;20051;-38
2022/01/22 12:25:23;;;;;;;9.77;6.57;;;3.70;99.90;;;3.67;72.24;99145.53;5107384;28;20043;-38
2022/01/22 12:27:55;;;;;;;11.47;7.00;;;3.80;99.90;;;3.67;72.06;99146.38;5097447;28;20067;-38
2022/01/22 12:30:35;;;;;;;13.13;7.73;;;3.80;99.90;;;3.81;72.31;99145.63;5107169;28;20058;-39
2022/01/22 12:33:09;;;;;;;11.60;6.80;;;3.90;99.90;;;3.88;72.22;99138.28;5106496;28;20059;-39
2022/01/22 12:35:43;;;;;;;13.40;7.38;;;4.00;99.90;;;3.75;72.08;99143.34;5106256;28;20043;-38
2022/01/22 12:41:29;;;;;;;11.03;7.40;;;3.90;99.90;;;3.86;71.92;99140.16;5105932;28;20284;-38
2022/01/22 12:44:33;;;;;;;13.33;7.87;;;3.90;99.90;;;3.77;72.28;99152.00;5107969;28;20415;-39
2022/01/22 12:47:11;;;;;;;8.75;6.07;;;3.90;99.90;;;3.64;72.05;99149.16;5106004;28;20054;-38